createdAt,value
2019-03-19T00:02:54.300Z,5.60
2019-03-19T00:07:57.031Z,5.59
2019-03-19T00:12:59.769Z,5.51
2019-03-19T00:18:02.487Z,5.55
2019-03-19T00:23:05.192Z,5.51
2019-03-19T00:28:07.941Z,5.51
2019-03-19T00:33:10.665Z,5.57
2019-03-19T00:38:13.405Z,5.53
2019-03-19T00:43:16.108Z,5.55
2019-03-19T00:48:18.820Z,5.53
2019-03-19T00:53:21.534Z,5.49
2019-03-19T00:58:24.259Z,5.49
2019-03-19T01:03:26.959Z,5.40
2019-03-19T01:08:29.682Z,5.41
2019-03-19T01:13:32.406Z,5.36
2019-03-19T01:18:35.108Z,5.33
2019-03-19T01:23:37.796Z,5.36
2019-03-19T01:28:40.515Z,5.29
2019-03-19T01:33:43.334Z,5.31
2019-03-19T01:38:46.076Z,5.30
2019-03-19T01:43:48.781Z,5.29
2019-03-19T01:48:51.486Z,5.33
2019-03-19T01:53:54.212Z,5.33
2019-03-19T01:58:56.943Z,5.35
2019-03-19T02:03:59.671Z,5.36
2019-03-19T02:09:02.915Z,5.32
2019-03-19T02:14:06.115Z,5.41
2019-03-19T02:19:08.840Z,5.42
2019-03-19T02:24:11.537Z,5.46
2019-03-19T02:29:14.242Z,5.39
2019-03-19T02:34:16.961Z,5.44
2019-03-19T02:39:19.674Z,5.40
2019-03-19T02:44:22.373Z,5.36
2019-03-19T02:49:25.076Z,5.32
2019-03-19T02:54:27.793Z,5.23
2019-03-19T02:59:30.485Z,5.22
2019-03-19T03:04:33.168Z,5.17
2019-03-19T03:09:35.860Z,5.15
2019-03-19T03:14:38.550Z,5.04
2019-03-19T03:19:41.235Z,5.02
2019-03-19T03:24:43.943Z,4.95
2019-03-19T03:29:46.625Z,4.92
2019-03-19T03:34:49.427Z,4.82
2019-03-19T03:39:52.149Z,4.77
2019-03-19T03:44:55.310Z,4.75
2019-03-19T03:49:58.432Z,4.71
2019-03-19T03:55:01.146Z,4.67
2019-03-19T04:00:06.530Z,4.65
2019-03-19T04:05:09.748Z,4.67
2019-03-19T04:10:12.618Z,4.66
2019-03-19T04:15:15.730Z,4.64
2019-03-19T04:20:18.427Z,4.61
2019-03-19T04:25:21.213Z,4.68
2019-03-19T04:30:23.907Z,4.59
2019-03-19T04:35:26.608Z,4.55
2019-03-19T04:40:29.299Z,4.50
2019-03-19T04:45:32.012Z,4.50
2019-03-19T04:50:34.984Z,4.52
2019-03-19T04:55:37.685Z,4.55
2019-03-19T05:00:41.188Z,4.53
2019-03-19T05:05:45.514Z,4.50
2019-03-19T05:10:48.289Z,4.52
2019-03-19T05:15:51.212Z,4.53
2019-03-19T05:20:53.917Z,4.51
2019-03-19T05:25:56.626Z,4.46
2019-03-19T05:30:59.327Z,4.46
2019-03-19T05:36:02.054Z,4.44
2019-03-19T05:41:04.781Z,4.42
2019-03-19T05:46:07.501Z,4.39
2019-03-19T05:51:10.244Z,4.35
2019-03-19T05:56:12.948Z,4.49
2019-03-19T06:01:15.662Z,4.54
2019-03-19T06:06:18.385Z,4.60
2019-03-19T06:11:21.208Z,4.65
2019-03-19T06:16:23.889Z,4.36
2019-03-19T06:21:26.570Z,4.92
2019-03-19T06:26:29.257Z,5.04
2019-03-19T06:31:31.949Z,5.15
2019-03-19T06:36:34.649Z,5.27
2019-03-19T06:41:37.349Z,5.43
2019-03-19T06:46:40.070Z,5.52
2019-03-19T06:51:42.775Z,5.67
2019-03-19T06:56:45.507Z,5.82
2019-03-19T07:01:48.436Z,5.86
2019-03-19T07:06:51.154Z,5.90
2019-03-19T07:11:53.875Z,6.02
2019-03-19T07:16:56.595Z,6.14
2019-03-19T07:21:59.262Z,6.30
2019-03-19T07:27:01.969Z,6.50
2019-03-19T07:32:04.688Z,6.71
2019-03-19T07:37:07.389Z,6.82
2019-03-19T07:42:10.125Z,7.06
2019-03-19T07:47:13.030Z,7.25
2019-03-19T07:52:15.716Z,7.45
2019-03-19T07:57:18.446Z,7.63
2019-03-19T08:02:21.216Z,7.85
2019-03-19T08:07:23.892Z,8.04
2019-03-19T08:12:26.574Z,8.16
2019-03-19T08:17:29.257Z,8.30
2019-03-19T08:22:31.955Z,8.48
2019-03-19T08:27:34.662Z,8.60
2019-03-19T08:32:37.367Z,8.78
2019-03-19T08:37:40.187Z,8.89
2019-03-19T08:42:42.910Z,9.10
2019-03-19T08:47:45.618Z,9.29
2019-03-19T08:52:48.361Z,9.29
2019-03-19T08:57:51.068Z,9.49
2019-03-19T09:02:53.781Z,9.70
2019-03-19T09:07:56.475Z,9.79
2019-03-19T09:12:59.229Z,10.01
2019-03-19T09:18:02.009Z,10.16
2019-03-19T09:23:04.761Z,10.25
2019-03-19T09:28:07.469Z,10.40
2019-03-19T09:33:10.177Z,10.47
2019-03-19T09:38:12.913Z,10.64
2019-03-19T09:43:15.604Z,10.86
2019-03-19T09:48:18.284Z,11.25
2019-03-19T09:53:20.975Z,11.47
2019-03-19T09:58:23.696Z,11.25
2019-03-19T10:03:26.387Z,11.39
2019-03-19T10:08:29.067Z,11.41
2019-03-19T10:13:31.771Z,11.86
2019-03-19T10:18:34.455Z,11.99
2019-03-19T10:23:37.153Z,11.72
2019-03-19T10:28:39.939Z,11.62
2019-03-19T10:33:42.630Z,12.13
2019-03-19T10:38:45.329Z,12.64
2019-03-19T10:43:48.015Z,12.89
2019-03-19T10:48:50.731Z,13.06
2019-03-19T10:53:53.414Z,13.28
2019-03-19T10:58:56.108Z,12.84
2019-03-19T11:03:58.795Z,13.37
2019-03-19T11:09:01.485Z,13.81
2019-03-19T11:14:04.180Z,14.09
2019-03-19T11:19:06.871Z,13.72
2019-03-19T11:24:09.583Z,13.49
2019-03-19T11:29:12.258Z,13.17
2019-03-19T11:34:14.941Z,13.33
2019-03-19T11:39:17.642Z,13.30
2019-03-19T11:44:20.358Z,12.85
2019-03-19T11:49:23.090Z,12.40
2019-03-19T11:54:25.791Z,12.98
2019-03-19T11:59:28.492Z,13.24
2019-03-19T12:04:31.188Z,13.30
2019-03-19T12:09:33.891Z,13.34
2019-03-19T12:14:36.624Z,14.10
2019-03-19T12:19:39.417Z,14.35
2019-03-19T12:24:42.206Z,14.45
2019-03-19T12:29:44.891Z,14.83
2019-03-19T12:34:47.592Z,15.01
2019-03-19T12:39:50.303Z,14.73
2019-03-19T12:44:53.008Z,14.72
2019-03-19T12:49:55.687Z,14.66
2019-03-19T12:54:58.376Z,13.85
2019-03-19T13:00:01.062Z,13.58
2019-03-19T13:05:04.499Z,13.74
2019-03-19T13:10:10.903Z,14.07
2019-03-19T13:15:14.668Z,14.68
2019-03-19T13:20:17.369Z,14.95
2019-03-19T13:25:20.078Z,14.63
2019-03-19T13:30:22.806Z,14.19
2019-03-19T13:35:25.510Z,13.84
2019-03-19T13:40:28.188Z,13.24
2019-03-19T13:45:30.890Z,13.03
2019-03-19T13:50:33.594Z,13.18
2019-03-19T13:55:36.319Z,13.54
2019-03-19T14:00:39.038Z,13.76
2019-03-19T14:05:41.750Z,14.15
2019-03-19T14:10:44.454Z,14.50
2019-03-19T14:15:47.155Z,14.66
2019-03-19T14:20:49.831Z,14.43
2019-03-19T14:25:52.562Z,13.87
2019-03-19T14:31:07.667Z,13.19
2019-03-19T14:35:59.932Z,13.05
2019-03-19T14:41:02.639Z,12.73
2019-03-19T14:46:05.342Z,12.87
2019-03-19T14:51:08.037Z,13.18
2019-03-19T14:56:10.727Z,13.58
2019-03-19T15:01:19.384Z,13.87
2019-03-19T15:06:18.082Z,13.62
2019-03-19T15:11:20.781Z,13.42
2019-03-19T15:16:23.499Z,13.43
2019-03-19T15:21:26.201Z,13.27
2019-03-19T15:26:28.893Z,12.94
2019-03-19T15:31:31.754Z,12.79
2019-03-19T15:36:34.444Z,12.63
2019-03-19T15:41:37.173Z,12.50
2019-03-19T15:46:39.908Z,12.41
2019-03-19T15:51:42.619Z,12.63
2019-03-19T15:56:45.303Z,12.82
2019-03-19T16:01:48.009Z,12.69
2019-03-19T16:06:50.712Z,13.63
2019-03-19T16:11:53.394Z,13.95
2019-03-19T16:16:56.106Z,13.45
2019-03-19T16:21:58.800Z,12.88
2019-03-19T16:27:01.504Z,12.74
2019-03-19T16:32:04.201Z,12.97
2019-03-19T16:37:06.897Z,13.10
2019-03-19T16:42:09.602Z,12.95
2019-03-19T16:47:12.299Z,12.97
2019-03-19T16:52:15.029Z,13.09
2019-03-19T16:57:17.865Z,13.05
2019-03-19T17:02:20.590Z,12.80
2019-03-19T17:07:23.300Z,12.57
2019-03-19T17:12:25.992Z,12.25
2019-03-19T17:17:28.692Z,12.00
2019-03-19T17:22:31.427Z,11.61
2019-03-19T17:27:34.142Z,11.37
2019-03-19T17:32:36.844Z,11.20
2019-03-19T17:37:39.600Z,11.03
2019-03-19T17:42:42.350Z,10.79
2019-03-19T17:47:45.154Z,10.59
2019-03-19T17:52:49.056Z,10.45
2019-03-19T17:57:51.790Z,10.28
2019-03-19T18:02:54.484Z,10.12
2019-03-19T18:07:57.188Z,9.94
2019-03-19T18:12:59.952Z,9.73
2019-03-19T18:18:02.744Z,9.58
2019-03-19T18:23:05.575Z,9.41
2019-03-19T18:28:08.308Z,9.25
2019-03-19T18:33:11.032Z,9.12
2019-03-19T18:38:13.855Z,8.96
2019-03-19T18:43:16.574Z,8.90
2019-03-19T18:48:19.333Z,8.84
2019-03-19T18:53:22.013Z,8.73
2019-03-19T19:03:26.998Z,8.51
2019-03-19T19:08:29.682Z,8.38
2019-03-19T19:13:32.365Z,8.32
2019-03-19T19:18:35.108Z,8.22
2019-03-19T19:23:37.803Z,8.17
2019-03-19T19:28:41.748Z,8.09
2019-03-19T19:33:44.438Z,7.97
2019-03-19T19:38:47.124Z,7.90
2019-03-19T19:43:49.809Z,7.80
2019-03-19T19:48:52.603Z,7.78
2019-03-19T19:53:55.296Z,7.81
2019-03-19T19:58:58.010Z,7.80
2019-03-19T20:04:00.699Z,7.74
2019-03-19T20:09:06.446Z,7.64
2019-03-19T20:14:10.174Z,7.53
2019-03-19T20:19:13.016Z,7.46
2019-03-19T20:24:15.716Z,7.38
2019-03-19T20:29:18.427Z,7.27
2019-03-19T20:34:21.109Z,7.19
2019-03-19T20:39:23.794Z,7.19
2019-03-19T20:44:26.498Z,7.08
2019-03-19T20:49:31.258Z,7.06
2019-03-19T20:54:33.951Z,6.92
2019-03-19T20:59:36.871Z,6.91
2019-03-19T21:04:39.570Z,6.92
2019-03-19T21:09:42.250Z,6.70
2019-03-19T21:14:44.959Z,6.60
2019-03-19T21:19:47.669Z,6.63
2019-03-19T21:24:50.361Z,6.57
2019-03-19T21:29:53.062Z,6.59
2019-03-19T21:34:55.762Z,6.58
2019-03-19T21:39:58.474Z,6.59
2019-03-19T21:45:01.150Z,6.55
2019-03-19T21:50:04.759Z,6.49
2019-03-19T21:55:07.815Z,6.50
2019-03-19T22:00:13.368Z,6.50
2019-03-19T22:05:16.048Z,6.52
2019-03-19T22:10:19.390Z,6.45
2019-03-19T22:15:22.303Z,6.39
2019-03-19T22:20:24.992Z,6.38
2019-03-19T22:25:27.695Z,5.95
2019-03-19T22:30:30.410Z,6.47
2019-03-19T22:35:33.101Z,6.53
2019-03-19T22:40:35.784Z,6.52
2019-03-19T22:45:38.475Z,6.53
2019-03-19T22:50:41.213Z,6.48
2019-03-19T22:55:43.931Z,6.40
2019-03-19T23:00:49.645Z,6.25
2019-03-19T23:05:52.332Z,6.09
2019-03-19T23:10:55.045Z,6.05
2019-03-19T23:15:57.766Z,6.06
2019-03-19T23:21:00.473Z,6.02
2019-03-19T23:26:03.272Z,5.99
2019-03-19T23:31:05.977Z,5.99
2019-03-19T23:36:08.694Z,6.01
2019-03-19T23:41:11.508Z,5.99
2019-03-19T23:46:14.194Z,5.95
2019-03-19T23:51:16.881Z,5.88
2019-03-19T23:56:19.583Z,5.86
